sensor_id;sensor_type;location;lat;lon;timestamp;P1;durP1;ratioP1;P2;durP2;ratioP2
21492;SDS011;10908;50.690;4.400;2022-12-18T00:00:47;80.32;;;35.65;;
21492;SDS011;10908;50.690;4.400;2022-12-18T00:03:15;82.53;;;35.88;;
21492;SDS011;10908;50.690;4.400;2022-12-18T00:05:48;84.82;;;35.75;;
21492;SDS011;10908;50.690;4.400;2022-12-18T00:08:15;77.85;;;35.58;;
21492;SDS011;10908;50.690;4.400;2022-12-18T00:10:40;80.78;;;34.60;;
21492;SDS011;10908;50.690;4.400;2022-12-18T00:13:06;78.68;;;33.88;;
21492;SDS011;10908;50.690;4.400;2022-12-18T00:15:35;74.60;;;33.40;;
21492;SDS011;10908;50.690;4.400;2022-12-18T00:18:02;76.28;;;34.33;;
21492;SDS011;10908;50.690;4.400;2022-12-18T00:20:28;76.10;;;32.97;;
21492;SDS011;10908;50.690;4.400;2022-12-18T00:22:54;69.25;;;31.00;;
21492;SDS011;10908;50.690;4.400;2022-12-18T00:25:20;70.72;;;31.25;;
21492;SDS011;10908;50.690;4.400;2022-12-18T00:27:46;66.60;;;29.98;;
21492;SDS011;10908;50.690;4.400;2022-12-18T00:30:12;79.13;;;33.25;;
21492;SDS011;10908;50.690;4.400;2022-12-18T00:32:38;78.20;;;34.38;;
21492;SDS011;10908;50.690;4.400;2022-12-18T00:35:05;82.00;;;35.20;;
21492;SDS011;10908;50.690;4.400;2022-12-18T00:37:32;79.78;;;34.40;;
21492;SDS011;10908;50.690;4.400;2022-12-18T00:39:58;82.28;;;35.42;;
21492;SDS011;10908;50.690;4.400;2022-12-18T00:42:24;90.25;;;38.65;;
21492;SDS011;10908;50.690;4.400;2022-12-18T00:45:08;98.07;;;39.15;;
21492;SDS011;10908;50.690;4.400;2022-12-18T00:47:34;97.00;;;39.38;;
21492;SDS011;10908;50.690;4.400;2022-12-18T00:49:59;81.72;;;34.58;;
21492;SDS011;10908;50.690;4.400;2022-12-18T00:52:25;67.53;;;30.92;;
21492;SDS011;10908;50.690;4.400;2022-12-18T00:54:51;76.53;;;32.42;;
21492;SDS011;10908;50.690;4.400;2022-12-18T00:57:16;82.40;;;34.42;;
21492;SDS011;10908;50.690;4.400;2022-12-18T00:59:42;81.85;;;35.05;;
21492;SDS011;10908;50.690;4.400;2022-12-18T01:02:08;79.32;;;35.35;;
21492;SDS011;10908;50.690;4.400;2022-12-18T01:04:33;87.53;;;37.22;;
21492;SDS011;10908;50.690;4.400;2022-12-18T01:06:59;81.35;;;35.70;;
21492;SDS011;10908;50.690;4.400;2022-12-18T01:09:24;84.32;;;37.38;;
21492;SDS011;10908;50.690;4.400;2022-12-18T01:11:51;96.88;;;40.20;;
21492;SDS011;10908;50.690;4.400;2022-12-18T01:14:16;79.90;;;36.30;;
21492;SDS011;10908;50.690;4.400;2022-12-18T01:16:42;78.90;;;34.45;;
21492;SDS011;10908;50.690;4.400;2022-12-18T01:19:07;73.20;;;33.10;;
21492;SDS011;10908;50.690;4.400;2022-12-18T01:21:33;77.50;;;31.95;;
21492;SDS011;10908;50.690;4.400;2022-12-18T01:23:59;82.55;;;34.72;;
21492;SDS011;10908;50.690;4.400;2022-12-18T01:26:25;73.80;;;31.60;;
21492;SDS011;10908;50.690;4.400;2022-12-18T01:28:53;62.03;;;27.88;;
21492;SDS011;10908;50.690;4.400;2022-12-18T01:31:20;68.45;;;30.55;;
21492;SDS011;10908;50.690;4.400;2022-12-18T01:33:51;69.25;;;31.10;;
21492;SDS011;10908;50.690;4.400;2022-12-18T01:38:48;64.68;;;27.98;;
21492;SDS011;10908;50.690;4.400;2022-12-18T01:41:16;59.83;;;26.00;;
21492;SDS011;10908;50.690;4.400;2022-12-18T01:43:44;62.35;;;28.10;;
21492;SDS011;10908;50.690;4.400;2022-12-18T01:46:12;56.88;;;25.27;;
21492;SDS011;10908;50.690;4.400;2022-12-18T01:48:38;58.95;;;26.42;;
21492;SDS011;10908;50.690;4.400;2022-12-18T01:51:04;54.60;;;23.20;;
21492;SDS011;10908;50.690;4.400;2022-12-18T01:53:32;62.65;;;25.80;;
21492;SDS011;10908;50.690;4.400;2022-12-18T01:55:58;54.38;;;25.02;;
21492;SDS011;10908;50.690;4.400;2022-12-18T01:58:28;61.10;;;26.75;;
21492;SDS011;10908;50.690;4.400;2022-12-18T02:00:59;59.13;;;26.45;;
21492;SDS011;10908;50.690;4.400;2022-12-18T02:03:25;61.03;;;27.92;;
21492;SDS011;10908;50.690;4.400;2022-12-18T02:14:14;53.15;;;23.40;;
21492;SDS011;10908;50.690;4.400;2022-12-18T02:27:23;53.70;;;23.02;;
21492;SDS011;10908;50.690;4.400;2022-12-18T02:29:52;54.40;;;24.55;;
21492;SDS011;10908;50.690;4.400;2022-12-18T02:32:22;55.40;;;26.23;;
21492;SDS011;10908;50.690;4.400;2022-12-18T02:34:52;61.17;;;25.48;;
21492;SDS011;10908;50.690;4.400;2022-12-18T02:37:20;62.78;;;27.38;;
21492;SDS011;10908;50.690;4.400;2022-12-18T02:39:47;64.03;;;27.65;;
21492;SDS011;10908;50.690;4.400;2022-12-18T02:42:14;57.97;;;26.08;;
21492;SDS011;10908;50.690;4.400;2022-12-18T02:44:42;63.45;;;27.38;;
21492;SDS011;10908;50.690;4.400;2022-12-18T02:47:10;61.90;;;25.00;;
21492;SDS011;10908;50.690;4.400;2022-12-18T02:57:50;52.22;;;22.08;;
21492;SDS011;10908;50.690;4.400;2022-12-18T03:00:24;53.17;;;23.38;;
21492;SDS011;10908;50.690;4.400;2022-12-18T03:03:15;50.30;;;21.30;;
21492;SDS011;10908;50.690;4.400;2022-12-18T03:05:53;55.38;;;22.20;;
21492;SDS011;10908;50.690;4.400;2022-12-18T03:08:31;46.75;;;22.38;;
21492;SDS011;10908;50.690;4.400;2022-12-18T03:11:06;49.47;;;21.27;;
21492;SDS011;10908;50.690;4.400;2022-12-18T03:13:42;52.22;;;21.83;;
21492;SDS011;10908;50.690;4.400;2022-12-18T03:16:10;55.72;;;23.95;;
21492;SDS011;10908;50.690;4.400;2022-12-18T03:19:14;53.42;;;24.33;;
21492;SDS011;10908;50.690;4.400;2022-12-18T03:21:37;52.17;;;23.30;;
21492;SDS011;10908;50.690;4.400;2022-12-18T03:24:07;58.50;;;25.45;;
21492;SDS011;10908;50.690;4.400;2022-12-18T03:26:36;66.43;;;27.42;;
21492;SDS011;10908;50.690;4.400;2022-12-18T03:29:10;59.60;;;25.25;;
21492;SDS011;10908;50.690;4.400;2022-12-18T03:31:41;59.47;;;26.25;;
21492;SDS011;10908;50.690;4.400;2022-12-18T03:34:13;51.47;;;24.58;;
21492;SDS011;10908;50.690;4.400;2022-12-18T03:36:44;59.38;;;26.52;;
21492;SDS011;10908;50.690;4.400;2022-12-18T03:39:10;56.47;;;24.90;;
21492;SDS011;10908;50.690;4.400;2022-12-18T03:41:53;61.15;;;25.05;;
21492;SDS011;10908;50.690;4.400;2022-12-18T03:44:31;59.05;;;24.17;;
21492;SDS011;10908;50.690;4.400;2022-12-18T03:47:08;53.47;;;23.38;;
21492;SDS011;10908;50.690;4.400;2022-12-18T03:52:38;51.78;;;22.30;;
21492;SDS011;10908;50.690;4.400;2022-12-18T03:55:24;50.85;;;22.15;;
21492;SDS011;10908;50.690;4.400;2022-12-18T03:57:53;51.72;;;22.00;;
21492;SDS011;10908;50.690;4.400;2022-12-18T04:00:19;48.17;;;21.23;;
21492;SDS011;10908;50.690;4.400;2022-12-18T04:02:48;50.60;;;21.35;;
21492;SDS011;10908;50.690;4.400;2022-12-18T04:05:16;47.20;;;20.65;;
21492;SDS011;10908;50.690;4.400;2022-12-18T04:07:47;52.83;;;21.27;;
21492;SDS011;10908;50.690;4.400;2022-12-18T04:10:14;47.88;;;20.98;;
21492;SDS011;10908;50.690;4.400;2022-12-18T04:12:41;45.53;;;20.55;;
21492;SDS011;10908;50.690;4.400;2022-12-18T04:15:07;48.60;;;21.15;;
21492;SDS011;10908;50.690;4.400;2022-12-18T04:17:34;46.38;;;20.33;;
21492;SDS011;10908;50.690;4.400;2022-12-18T04:19:59;51.65;;;22.15;;
21492;SDS011;10908;50.690;4.400;2022-12-18T04:22:26;48.92;;;20.08;;
21492;SDS011;10908;50.690;4.400;2022-12-18T04:24:52;45.60;;;18.98;;
21492;SDS011;10908;50.690;4.400;2022-12-18T04:27:17;45.40;;;19.33;;
21492;SDS011;10908;50.690;4.400;2022-12-18T04:29:43;48.93;;;19.67;;
21492;SDS011;10908;50.690;4.400;2022-12-18T04:32:09;45.90;;;19.13;;
21492;SDS011;10908;50.690;4.400;2022-12-18T04:34:35;42.22;;;17.77;;
21492;SDS011;10908;50.690;4.400;2022-12-18T04:37:00;40.63;;;17.33;;
21492;SDS011;10908;50.690;4.400;2022-12-18T04:39:26;45.27;;;19.37;;
21492;SDS011;10908;50.690;4.400;2022-12-18T04:41:51;44.33;;;18.85;;
21492;SDS011;10908;50.690;4.400;2022-12-18T04:44:17;42.13;;;18.70;;
21492;SDS011;10908;50.690;4.400;2022-12-18T04:46:42;40.47;;;17.48;;
21492;SDS011;10908;50.690;4.400;2022-12-18T04:49:08;45.67;;;18.10;;
21492;SDS011;10908;50.690;4.400;2022-12-18T04:51:35;42.20;;;18.13;;
21492;SDS011;10908;50.690;4.400;2022-12-18T04:54:02;43.88;;;18.25;;
21492;SDS011;10908;50.690;4.400;2022-12-18T04:56:28;39.30;;;18.13;;
21492;SDS011;10908;50.690;4.400;2022-12-18T04:58:53;44.97;;;18.45;;
21492;SDS011;10908;50.690;4.400;2022-12-18T05:01:19;37.72;;;16.73;;
21492;SDS011;10908;50.690;4.400;2022-12-18T05:03:44;37.07;;;17.03;;
21492;SDS011;10908;50.690;4.400;2022-12-18T05:06:10;41.95;;;17.92;;
21492;SDS011;10908;50.690;4.400;2022-12-18T05:08:36;40.37;;;16.60;;
21492;SDS011;10908;50.690;4.400;2022-12-18T05:11:03;37.77;;;16.13;;
21492;SDS011;10908;50.690;4.400;2022-12-18T05:13:29;39.23;;;16.27;;
21492;SDS011;10908;50.690;4.400;2022-12-18T05:15:55;37.03;;;15.23;;
21492;SDS011;10908;50.690;4.400;2022-12-18T05:18:22;39.95;;;16.48;;
21492;SDS011;10908;50.690;4.400;2022-12-18T05:20:49;38.00;;;17.00;;
21492;SDS011;10908;50.690;4.400;2022-12-18T05:23:16;39.47;;;16.77;;
21492;SDS011;10908;50.690;4.400;2022-12-18T05:25:42;43.63;;;17.03;;
21492;SDS011;10908;50.690;4.400;2022-12-18T05:28:07;41.87;;;17.73;;
21492;SDS011;10908;50.690;4.400;2022-12-18T05:30:33;41.55;;;16.73;;
21492;SDS011;10908;50.690;4.400;2022-12-18T05:32:58;33.87;;;15.37;;
21492;SDS011;10908;50.690;4.400;2022-12-18T05:35:24;32.57;;;14.40;;
21492;SDS011;10908;50.690;4.400;2022-12-18T05:37:50;33.85;;;15.07;;
21492;SDS011;10908;50.690;4.400;2022-12-18T05:40:15;35.15;;;14.50;;
21492;SDS011;10908;50.690;4.400;2022-12-18T05:42:41;33.40;;;14.82;;
21492;SDS011;10908;50.690;4.400;2022-12-18T05:45:06;31.73;;;14.48;;
21492;SDS011;10908;50.690;4.400;2022-12-18T05:47:32;37.67;;;15.95;;
21492;SDS011;10908;50.690;4.400;2022-12-18T05:49:58;41.95;;;18.48;;
21492;SDS011;10908;50.690;4.400;2022-12-18T05:52:24;41.85;;;18.73;;
21492;SDS011;10908;50.690;4.400;2022-12-18T05:54:49;42.33;;;19.08;;
21492;SDS011;10908;50.690;4.400;2022-12-18T05:57:15;39.75;;;17.65;;
21492;SDS011;10908;50.690;4.400;2022-12-18T05:59:40;42.03;;;18.17;;
21492;SDS011;10908;50.690;4.400;2022-12-18T06:02:06;40.08;;;16.98;;
21492;SDS011;10908;50.690;4.400;2022-12-18T06:04:32;44.42;;;17.88;;
21492;SDS011;10908;50.690;4.400;2022-12-18T06:06:57;36.83;;;16.25;;
21492;SDS011;10908;50.690;4.400;2022-12-18T06:09:23;40.10;;;17.17;;
21492;SDS011;10908;50.690;4.400;2022-12-18T06:11:49;41.08;;;17.30;;
21492;SDS011;10908;50.690;4.400;2022-12-18T06:14:16;39.88;;;17.23;;
21492;SDS011;10908;50.690;4.400;2022-12-18T06:16:42;35.13;;;15.90;;
21492;SDS011;10908;50.690;4.400;2022-12-18T06:19:13;39.87;;;16.33;;
21492;SDS011;10908;50.690;4.400;2022-12-18T06:21:41;40.20;;;16.30;;
21492;SDS011;10908;50.690;4.400;2022-12-18T06:24:07;33.23;;;15.03;;
21492;SDS011;10908;50.690;4.400;2022-12-18T06:26:32;36.30;;;15.57;;
21492;SDS011;10908;50.690;4.400;2022-12-18T06:28:58;36.07;;;14.83;;
21492;SDS011;10908;50.690;4.400;2022-12-18T06:31:24;32.97;;;14.20;;
21492;SDS011;10908;50.690;4.400;2022-12-18T06:33:50;33.88;;;14.98;;
21492;SDS011;10908;50.690;4.400;2022-12-18T06:36:16;33.35;;;14.35;;
21492;SDS011;10908;50.690;4.400;2022-12-18T06:38:42;35.85;;;14.80;;
21492;SDS011;10908;50.690;4.400;2022-12-18T06:41:09;33.28;;;14.57;;
21492;SDS011;10908;50.690;4.400;2022-12-18T06:43:36;30.92;;;14.27;;
21492;SDS011;10908;50.690;4.400;2022-12-18T06:46:02;35.65;;;14.88;;
21492;SDS011;10908;50.690;4.400;2022-12-18T06:48:29;34.20;;;14.65;;
21492;SDS011;10908;50.690;4.400;2022-12-18T06:50:55;33.60;;;14.25;;
21492;SDS011;10908;50.690;4.400;2022-12-18T06:53:21;34.20;;;14.48;;
21492;SDS011;10908;50.690;4.400;2022-12-18T06:55:47;30.23;;;14.02;;
21492;SDS011;10908;50.690;4.400;2022-12-18T06:58:13;32.15;;;13.60;;
21492;SDS011;10908;50.690;4.400;2022-12-18T07:00:39;29.08;;;12.65;;
21492;SDS011;10908;50.690;4.400;2022-12-18T07:03:05;32.67;;;12.23;;
21492;SDS011;10908;50.690;4.400;2022-12-18T07:05:30;30.65;;;12.90;;
21492;SDS011;10908;50.690;4.400;2022-12-18T07:07:56;34.08;;;12.93;;
21492;SDS011;10908;50.690;4.400;2022-12-18T07:10:22;33.78;;;13.13;;
21492;SDS011;10908;50.690;4.400;2022-12-18T07:12:48;28.90;;;11.30;;
21492;SDS011;10908;50.690;4.400;2022-12-18T07:15:13;31.67;;;12.95;;
21492;SDS011;10908;50.690;4.400;2022-12-18T07:17:39;29.45;;;12.77;;
21492;SDS011;10908;50.690;4.400;2022-12-18T07:20:05;34.10;;;13.68;;
21492;SDS011;10908;50.690;4.400;2022-12-18T07:22:31;38.55;;;14.93;;
21492;SDS011;10908;50.690;4.400;2022-12-18T07:24:56;34.88;;;14.20;;
21492;SDS011;10908;50.690;4.400;2022-12-18T07:27:22;33.83;;;13.73;;
21492;SDS011;10908;50.690;4.400;2022-12-18T07:29:48;37.40;;;15.43;;
21492;SDS011;10908;50.690;4.400;2022-12-18T07:32:13;36.72;;;16.40;;
21492;SDS011;10908;50.690;4.400;2022-12-18T07:34:39;33.45;;;14.38;;
21492;SDS011;10908;50.690;4.400;2022-12-18T07:37:05;30.10;;;13.32;;
21492;SDS011;10908;50.690;4.400;2022-12-18T07:39:30;28.92;;;11.75;;
21492;SDS011;10908;50.690;4.400;2022-12-18T07:41:56;24.08;;;10.57;;
21492;SDS011;10908;50.690;4.400;2022-12-18T07:44:40;26.35;;;11.32;;
21492;SDS011;10908;50.690;4.400;2022-12-18T07:47:06;28.02;;;13.35;;
21492;SDS011;10908;50.690;4.400;2022-12-18T07:49:32;24.80;;;11.18;;
21492;SDS011;10908;50.690;4.400;2022-12-18T07:51:57;27.88;;;11.70;;
21492;SDS011;10908;50.690;4.400;2022-12-18T07:54:23;26.17;;;10.82;;
21492;SDS011;10908;50.690;4.400;2022-12-18T07:56:49;25.15;;;10.10;;
21492;SDS011;10908;50.690;4.400;2022-12-18T07:59:15;25.58;;;11.52;;
21492;SDS011;10908;50.690;4.400;2022-12-18T08:01:41;26.15;;;12.48;;
21492;SDS011;10908;50.690;4.400;2022-12-18T08:04:07;26.77;;;11.88;;
21492;SDS011;10908;50.690;4.400;2022-12-18T08:06:32;29.70;;;13.20;;
21492;SDS011;10908;50.690;4.400;2022-12-18T08:08:58;27.25;;;11.95;;
21492;SDS011;10908;50.690;4.400;2022-12-18T08:11:24;30.80;;;12.90;;
21492;SDS011;10908;50.690;4.400;2022-12-18T08:13:51;24.98;;;11.60;;
21492;SDS011;10908;50.690;4.400;2022-12-18T08:16:18;29.70;;;12.18;;
21492;SDS011;10908;50.690;4.400;2022-12-18T08:18:44;24.85;;;11.60;;
21492;SDS011;10908;50.690;4.400;2022-12-18T08:21:14;23.08;;;10.80;;
21492;SDS011;10908;50.690;4.400;2022-12-18T08:23:43;29.25;;;13.02;;
21492;SDS011;10908;50.690;4.400;2022-12-18T08:26:09;24.75;;;12.15;;
21492;SDS011;10908;50.690;4.400;2022-12-18T08:28:35;23.83;;;11.55;;
21492;SDS011;10908;50.690;4.400;2022-12-18T08:31:01;26.98;;;11.93;;
21492;SDS011;10908;50.690;4.400;2022-12-18T08:33:27;26.85;;;12.55;;
21492;SDS011;10908;50.690;4.400;2022-12-18T08:35:52;28.85;;;13.32;;
21492;SDS011;10908;50.690;4.400;2022-12-18T08:38:18;26.33;;;12.77;;
21492;SDS011;10908;50.690;4.400;2022-12-18T08:40:44;28.23;;;12.63;;
21492;SDS011;10908;50.690;4.400;2022-12-18T08:43:10;25.80;;;11.55;;
21492;SDS011;10908;50.690;4.400;2022-12-18T08:45:54;27.83;;;12.15;;
21492;SDS011;10908;50.690;4.400;2022-12-18T08:48:20;26.30;;;12.20;;
21492;SDS011;10908;50.690;4.400;2022-12-18T08:50:58;24.00;;;11.95;;
21492;SDS011;10908;50.690;4.400;2022-12-18T08:53:25;25.00;;;12.65;;
21492;SDS011;10908;50.690;4.400;2022-12-18T08:55:51;27.73;;;12.93;;
21492;SDS011;10908;50.690;4.400;2022-12-18T08:58:17;25.88;;;13.77;;
21492;SDS011;10908;50.690;4.400;2022-12-18T09:00:43;22.92;;;11.95;;
21492;SDS011;10908;50.690;4.400;2022-12-18T09:03:15;23.45;;;12.63;;
21492;SDS011;10908;50.690;4.400;2022-12-18T09:05:42;25.17;;;11.82;;
21492;SDS011;10908;50.690;4.400;2022-12-18T09:08:08;21.33;;;10.82;;
21492;SDS011;10908;50.690;4.400;2022-12-18T09:10:34;23.27;;;11.27;;
21492;SDS011;10908;50.690;4.400;2022-12-18T09:13:05;20.60;;;10.88;;
21492;SDS011;10908;50.690;4.400;2022-12-18T09:15:31;21.15;;;10.93;;
21492;SDS011;10908;50.690;4.400;2022-12-18T09:17:57;21.52;;;10.27;;
21492;SDS011;10908;50.690;4.400;2022-12-18T09:20:22;21.30;;;10.20;;
21492;SDS011;10908;50.690;4.400;2022-12-18T09:22:48;20.42;;;10.55;;
21492;SDS011;10908;50.690;4.400;2022-12-18T09:25:13;19.85;;;9.93;;
21492;SDS011;10908;50.690;4.400;2022-12-18T09:27:39;20.85;;;10.13;;
21492;SDS011;10908;50.690;4.400;2022-12-18T09:30:05;18.20;;;9.00;;
21492;SDS011;10908;50.690;4.400;2022-12-18T09:32:31;22.15;;;10.18;;
21492;SDS011;10908;50.690;4.400;2022-12-18T09:34:57;18.23;;;9.27;;
21492;SDS011;10908;50.690;4.400;2022-12-18T09:37:22;20.13;;;9.55;;
21492;SDS011;10908;50.690;4.400;2022-12-18T09:39:48;20.92;;;9.52;;
21492;SDS011;10908;50.690;4.400;2022-12-18T09:42:21;17.92;;;9.00;;
21492;SDS011;10908;50.690;4.400;2022-12-18T09:44:51;19.67;;;9.02;;
21492;SDS011;10908;50.690;4.400;2022-12-18T09:47:28;21.70;;;10.30;;
21492;SDS011;10908;50.690;4.400;2022-12-18T09:50:01;17.63;;;9.25;;
21492;SDS011;10908;50.690;4.400;2022-12-18T09:52:34;19.80;;;9.82;;
21492;SDS011;10908;50.690;4.400;2022-12-18T09:57:41;19.85;;;9.85;;
21492;SDS011;10908;50.690;4.400;2022-12-18T10:00:16;18.77;;;8.88;;
21492;SDS011;10908;50.690;4.400;2022-12-18T10:02:44;18.23;;;8.98;;
21492;SDS011;10908;50.690;4.400;2022-12-18T10:05:24;16.75;;;8.50;;
21492;SDS011;10908;50.690;4.400;2022-12-18T10:08:16;18.80;;;8.80;;
21492;SDS011;10908;50.690;4.400;2022-12-18T10:10:51;18.65;;;8.95;;
21492;SDS011;10908;50.690;4.400;2022-12-18T10:16:09;24.17;;;9.55;;
21492;SDS011;10908;50.690;4.400;2022-12-18T10:21:23;20.42;;;10.05;;
21492;SDS011;10908;50.690;4.400;2022-12-18T10:26:44;19.13;;;9.18;;
21492;SDS011;10908;50.690;4.400;2022-12-18T10:29:12;19.38;;;8.88;;
21492;SDS011;10908;50.690;4.400;2022-12-18T10:31:38;22.27;;;10.55;;
21492;SDS011;10908;50.690;4.400;2022-12-18T10:34:07;19.65;;;8.77;;
21492;SDS011;10908;50.690;4.400;2022-12-18T10:36:36;18.60;;;8.85;;
21492;SDS011;10908;50.690;4.400;2022-12-18T10:39:16;18.60;;;9.02;;
21492;SDS011;10908;50.690;4.400;2022-12-18T10:41:41;20.80;;;9.13;;
21492;SDS011;10908;50.690;4.400;2022-12-18T10:44:21;17.42;;;9.35;;
21492;SDS011;10908;50.690;4.400;2022-12-18T10:46:49;20.15;;;9.52;;
21492;SDS011;10908;50.690;4.400;2022-12-18T10:49:23;20.38;;;9.27;;
21492;SDS011;10908;50.690;4.400;2022-12-18T10:54:54;21.00;;;9.73;;
21492;SDS011;10908;50.690;4.400;2022-12-18T10:59:56;18.73;;;9.38;;
21492;SDS011;10908;50.690;4.400;2022-12-18T11:02:36;18.48;;;9.27;;
21492;SDS011;10908;50.690;4.400;2022-12-18T11:05:03;22.88;;;9.95;;
21492;SDS011;10908;50.690;4.400;2022-12-18T11:07:49;23.52;;;10.25;;
21492;SDS011;10908;50.690;4.400;2022-12-18T11:10:18;20.90;;;9.77;;
21492;SDS011;10908;50.690;4.400;2022-12-18T11:12:45;23.40;;;9.00;;
21492;SDS011;10908;50.690;4.400;2022-12-18T11:15:22;21.80;;;10.15;;
21492;SDS011;10908;50.690;4.400;2022-12-18T11:17:52;19.10;;;9.68;;
21492;SDS011;10908;50.690;4.400;2022-12-18T11:20:31;21.92;;;10.23;;
21492;SDS011;10908;50.690;4.400;2022-12-18T11:25:27;19.40;;;9.95;;
21492;SDS011;10908;50.690;4.400;2022-12-18T11:30:31;19.98;;;9.02;;
21492;SDS011;10908;50.690;4.400;2022-12-18T11:33:03;22.65;;;10.10;;
21492;SDS011;10908;50.690;4.400;2022-12-18T11:35:39;22.10;;;9.52;;
21492;SDS011;10908;50.690;4.400;2022-12-18T11:38:23;24.08;;;10.60;;
21492;SDS011;10908;50.690;4.400;2022-12-18T11:44:19;23.65;;;10.93;;
21492;SDS011;10908;50.690;4.400;2022-12-18T11:46:47;24.27;;;10.20;;
21492;SDS011;10908;50.690;4.400;2022-12-18T11:49:22;22.23;;;10.93;;
21492;SDS011;10908;50.690;4.400;2022-12-18T11:51:55;24.05;;;10.00;;
21492;SDS011;10908;50.690;4.400;2022-12-18T11:54:41;21.25;;;10.88;;
21492;SDS011;10908;50.690;4.400;2022-12-18T12:05:20;22.00;;;10.88;;
21492;SDS011;10908;50.690;4.400;2022-12-18T12:13:23;18.45;;;9.38;;
21492;SDS011;10908;50.690;4.400;2022-12-18T12:16:22;22.58;;;10.55;;
21492;SDS011;10908;50.690;4.400;2022-12-18T12:31:09;25.55;;;11.43;;
21492;SDS011;10908;50.690;4.400;2022-12-18T12:34:09;27.05;;;11.45;;
21492;SDS011;10908;50.690;4.400;2022-12-18T12:39:37;22.20;;;11.07;;
21492;SDS011;10908;50.690;4.400;2022-12-18T12:42:15;26.58;;;11.65;;
21492;SDS011;10908;50.690;4.400;2022-12-18T12:45:09;28.63;;;13.32;;
21492;SDS011;10908;50.690;4.400;2022-12-18T12:47:43;26.40;;;13.20;;
21492;SDS011;10908;50.690;4.400;2022-12-18T12:50:14;28.95;;;13.50;;
21492;SDS011;10908;50.690;4.400;2022-12-18T12:52:51;29.48;;;14.00;;
21492;SDS011;10908;50.690;4.400;2022-12-18T12:55:20;27.02;;;12.82;;
21492;SDS011;10908;50.690;4.400;2022-12-18T12:58:08;30.75;;;13.07;;
21492;SDS011;10908;50.690;4.400;2022-12-18T13:06:19;31.35;;;13.88;;
21492;SDS011;10908;50.690;4.400;2022-12-18T13:08:56;30.33;;;13.65;;
21492;SDS011;10908;50.690;4.400;2022-12-18T13:11:37;26.30;;;13.02;;
21492;SDS011;10908;50.690;4.400;2022-12-18T13:14:24;31.50;;;14.15;;
21492;SDS011;10908;50.690;4.400;2022-12-18T13:17:30;28.20;;;13.52;;
21492;SDS011;10908;50.690;4.400;2022-12-18T13:22:40;30.38;;;13.77;;
21492;SDS011;10908;50.690;4.400;2022-12-18T13:38:44;29.83;;;13.70;;
21492;SDS011;10908;50.690;4.400;2022-12-18T13:43:42;32.05;;;14.88;;
21492;SDS011;10908;50.690;4.400;2022-12-18T13:46:27;32.30;;;14.85;;
21492;SDS011;10908;50.690;4.400;2022-12-18T13:49:02;34.28;;;15.82;;
21492;SDS011;10908;50.690;4.400;2022-12-18T13:51:47;33.28;;;15.35;;
21492;SDS011;10908;50.690;4.400;2022-12-18T13:57:05;28.95;;;13.82;;
21492;SDS011;10908;50.690;4.400;2022-12-18T13:59:48;32.45;;;15.02;;
21492;SDS011;10908;50.690;4.400;2022-12-18T14:04:44;31.02;;;14.60;;
21492;SDS011;10908;50.690;4.400;2022-12-18T14:07:15;31.60;;;14.82;;
21492;SDS011;10908;50.690;4.400;2022-12-18T14:09:53;31.65;;;15.18;;
21492;SDS011;10908;50.690;4.400;2022-12-18T14:12:32;32.97;;;15.13;;
21492;SDS011;10908;50.690;4.400;2022-12-18T14:17:53;33.47;;;15.13;;
21492;SDS011;10908;50.690;4.400;2022-12-18T14:20:39;33.17;;;15.27;;
21492;SDS011;10908;50.690;4.400;2022-12-18T14:25:58;34.83;;;15.80;;
21492;SDS011;10908;50.690;4.400;2022-12-18T14:28:24;35.08;;;16.52;;
21492;SDS011;10908;50.690;4.400;2022-12-18T14:30:51;41.95;;;17.95;;
21492;SDS011;10908;50.690;4.400;2022-12-18T14:33:18;34.60;;;17.15;;
21492;SDS011;10908;50.690;4.400;2022-12-18T14:35:56;33.63;;;15.70;;
21492;SDS011;10908;50.690;4.400;2022-12-18T14:40:55;35.20;;;16.33;;
21492;SDS011;10908;50.690;4.400;2022-12-18T14:43:31;36.58;;;16.83;;
21492;SDS011;10908;50.690;4.400;2022-12-18T14:45:58;35.13;;;15.20;;
21492;SDS011;10908;50.690;4.400;2022-12-18T14:48:41;35.17;;;16.45;;
21492;SDS011;10908;50.690;4.400;2022-12-18T14:51:18;38.40;;;16.92;;
21492;SDS011;10908;50.690;4.400;2022-12-18T14:53:53;36.47;;;16.30;;
21492;SDS011;10908;50.690;4.400;2022-12-18T14:56:25;39.72;;;17.23;;
21492;SDS011;10908;50.690;4.400;2022-12-18T14:58:53;41.65;;;17.92;;
21492;SDS011;10908;50.690;4.400;2022-12-18T15:04:00;38.45;;;16.60;;
21492;SDS011;10908;50.690;4.400;2022-12-18T15:06:31;34.45;;;16.85;;
21492;SDS011;10908;50.690;4.400;2022-12-18T15:09:05;35.83;;;17.17;;
21492;SDS011;10908;50.690;4.400;2022-12-18T15:11:48;34.72;;;16.13;;
21492;SDS011;10908;50.690;4.400;2022-12-18T15:14:48;34.97;;;14.80;;
21492;SDS011;10908;50.690;4.400;2022-12-18T15:17:20;38.30;;;16.13;;
21492;SDS011;10908;50.690;4.400;2022-12-18T15:19:48;33.15;;;15.25;;
21492;SDS011;10908;50.690;4.400;2022-12-18T15:22:29;33.60;;;15.57;;
21492;SDS011;10908;50.690;4.400;2022-12-18T15:24:58;34.55;;;15.10;;
21492;SDS011;10908;50.690;4.400;2022-12-18T15:27:29;32.10;;;15.07;;
21492;SDS011;10908;50.690;4.400;2022-12-18T15:32:36;37.03;;;15.82;;
21492;SDS011;10908;50.690;4.400;2022-12-18T15:35:07;33.00;;;14.88;;
21492;SDS011;10908;50.690;4.400;2022-12-18T15:37:45;34.47;;;15.07;;
21492;SDS011;10908;50.690;4.400;2022-12-18T15:40:12;33.40;;;14.75;;
21492;SDS011;10908;50.690;4.400;2022-12-18T15:56:01;33.45;;;15.60;;
21492;SDS011;10908;50.690;4.400;2022-12-18T15:58:45;31.45;;;14.55;;
21492;SDS011;10908;50.690;4.400;2022-12-18T16:01:11;32.15;;;14.93;;
21492;SDS011;10908;50.690;4.400;2022-12-18T16:03:37;36.85;;;15.70;;
21492;SDS011;10908;50.690;4.400;2022-12-18T16:06:03;34.10;;;15.70;;
21492;SDS011;10908;50.690;4.400;2022-12-18T16:08:29;33.30;;;14.93;;
21492;SDS011;10908;50.690;4.400;2022-12-18T16:10:55;30.98;;;14.43;;
21492;SDS011;10908;50.690;4.400;2022-12-18T16:13:22;31.88;;;15.50;;
21492;SDS011;10908;50.690;4.400;2022-12-18T16:15:47;34.75;;;14.90;;
21492;SDS011;10908;50.690;4.400;2022-12-18T16:18:13;33.58;;;14.93;;
21492;SDS011;10908;50.690;4.400;2022-12-18T16:20:39;35.88;;;15.20;;
21492;SDS011;10908;50.690;4.400;2022-12-18T16:23:05;33.63;;;14.85;;
21492;SDS011;10908;50.690;4.400;2022-12-18T16:25:31;33.95;;;14.05;;
21492;SDS011;10908;50.690;4.400;2022-12-18T16:27:57;32.88;;;13.98;;
21492;SDS011;10908;50.690;4.400;2022-12-18T16:30:24;32.25;;;14.25;;
21492;SDS011;10908;50.690;4.400;2022-12-18T16:32:53;32.40;;;14.57;;
21492;SDS011;10908;50.690;4.400;2022-12-18T16:35:19;30.50;;;13.88;;
21492;SDS011;10908;50.690;4.400;2022-12-18T16:37:45;33.58;;;14.55;;
21492;SDS011;10908;50.690;4.400;2022-12-18T16:40:12;32.80;;;14.57;;
21492;SDS011;10908;50.690;4.400;2022-12-18T16:42:41;33.90;;;14.38;;
21492;SDS011;10908;50.690;4.400;2022-12-18T16:45:09;34.22;;;14.80;;
21492;SDS011;10908;50.690;4.400;2022-12-18T16:47:37;33.72;;;14.32;;
21492;SDS011;10908;50.690;4.400;2022-12-18T16:50:03;29.83;;;13.02;;
21492;SDS011;10908;50.690;4.400;2022-12-18T16:52:29;34.33;;;13.88;;
21492;SDS011;10908;50.690;4.400;2022-12-18T16:54:55;29.95;;;13.63;;
21492;SDS011;10908;50.690;4.400;2022-12-18T16:57:21;32.35;;;13.43;;
21492;SDS011;10908;50.690;4.400;2022-12-18T16:59:48;33.38;;;14.00;;